This is the latest recevied weather packets stored in our database for station/object WB6ANP. If no packets are shown the sender has not sent any weather packets the latest 1 day(s).
| Time | Temp. | Humidity | Pressure | Rain* | Wind** | Luminosity | Snow |
|---|---|---|---|---|---|---|---|
| 1778091339 | 15.56° C | 70% | 1014.7 hPa | 0 mm | - | 354 W/m² | - |
| 1778090125 | 15° C | 72% | 1014.5 hPa | 0 mm | - | 547 W/m² | - |
| 1778086188 | 12.22° C | 85% | 1014.4 hPa | 0 mm | - | 340 W/m² | - |
| 1778084671 | 11.11° C | 86% | 1014.4 hPa | 0 mm | - | 161 W/m² | - |
| 1778083763 | 11.11° C | 88% | 1014.4 hPa | 0 mm | - | 96 W/m² | - |
| 1778083460 | 11.11° C | 88% | 1014.5 hPa | 0 mm | - | 85 W/m² | - |
| 1778082855 | 11.11° C | 88% | 1014.4 hPa | 0 mm | - | 145 W/m² | - |
| 1778081434 | 10.56° C | 91% | 1014 hPa | 0 mm | - | 286 W/m² | - |
| 1778081131 | 10.56° C | 91% | 1014.4 hPa | 0 mm | - | 246 W/m² | - |
| 1778079617 | 10.56° C | 93% | 1014.6 hPa | 0.51 mm | - | 214 W/m² | - |
| 1778079011 | 10° C | 92% | 1015.1 hPa | 0.51 mm | - | 76 W/m² | - |
| 1778077801 | 10° C | 91% | 1016.5 hPa | 0.51 mm | - | 27 W/m² | - |
| 1778077498 | 10° C | 91% | 1015.1 hPa | 0.51 mm | - | 52 W/m² | - |
| 1778077196 | 10° C | 91% | 1015 hPa | 0.51 mm | - | 26 W/m² | - |
| 1778076592 | 10° C | 91% | 1014.1 hPa | 0 mm | - | 34 W/m² | - |
| 1778075985 | 10.56° C | 89% | 1014.1 hPa | 0.51 mm | - | 60 W/m² | - |
| 1778075378 | 10.56° C | 88% | 1014.8 hPa | 0 mm | - | 44 W/m² | - |
| 1778074772 | 10.56° C | 87% | 1014.8 hPa | 0 mm | - | 33 W/m² | - |
| 1778073560 | 10.56° C | 87% | 1013.9 hPa | 0 mm | - | 43 W/m² | - |
| 1778071744 | 10° C | 87% | 1013.3 hPa | 0 mm | - | 36 W/m² | - |
| 1778070534 | 10.56° C | 87% | 1012.9 hPa | 0 mm | - | 17 W/m² | - |
| 1778066903 | 11.11° C | 84% | 1012.6 hPa | 0 mm | - | 0 W/m² | - |
| 1778066600 | 11.11° C | 84% | 1012.7 hPa | 0 mm | - | 0 W/m² | - |
| 1778065693 | 11.11° C | 83% | 1012.4 hPa | 0 mm | - | 0 W/m² | - |
| 1778063573 | 12.22° C | 81% | 1011.8 hPa | 0 mm | - | 0 W/m² | - |
* Rain latest hour (hover to see other rain measurements)
** Current wind speed in m/s (hover to see current wind gust speed)